createdAt,value
2022-12-19T00:02:22.559Z,-6.25
2022-12-19T00:05:01.379Z,-6.20
2022-12-19T00:07:31.861Z,-6.17
2022-12-19T00:10:05.740Z,-6.10
2022-12-19T00:12:38.280Z,-6.12
2022-12-19T00:15:18.934Z,-6.14
2022-12-19T00:17:53.315Z,-6.07
2022-12-19T00:20:23.669Z,-6.07
2022-12-19T00:22:57.123Z,-6.03
2022-12-19T00:25:30.905Z,-6.08
2022-12-19T00:28:05.381Z,-6.06
2022-12-19T00:30:36.461Z,-6.08
2022-12-19T00:33:07.038Z,-6.01
2022-12-19T00:35:38.445Z,-5.97
2022-12-19T00:38:09.270Z,-6.03
2022-12-19T00:43:13.456Z,-6.03
2022-12-19T00:45:43.860Z,-6.02
2022-12-19T00:48:16.020Z,-6.00
2022-12-19T00:50:52.191Z,-6.01
2022-12-19T00:53:23.192Z,-6.00
2022-12-19T00:55:57.049Z,-5.98
2022-12-19T00:58:27.306Z,-5.96
2022-12-19T01:00:57.890Z,-5.90
2022-12-19T01:03:28.492Z,-5.89
2022-12-19T01:05:59.239Z,-5.92
2022-12-19T01:08:30.370Z,-5.90
2022-12-19T01:11:04.808Z,-5.92
2022-12-19T01:13:37.670Z,-5.88
2022-12-19T01:16:12.906Z,-5.92
2022-12-19T01:18:43.554Z,-5.94
2022-12-19T01:21:14.246Z,-5.95
2022-12-19T01:23:44.182Z,-5.96
2022-12-19T01:26:17.365Z,-5.91
2022-12-19T01:28:47.489Z,-5.93
2022-12-19T01:31:18.071Z,-5.92
2022-12-19T01:33:49.233Z,-5.94
2022-12-19T01:36:21.937Z,-5.86
2022-12-19T01:38:52.556Z,-5.82
2022-12-19T01:41:25.530Z,-5.85
2022-12-19T01:44:01.395Z,-5.85
2022-12-19T01:46:38.571Z,-5.79
2022-12-19T01:49:14.192Z,-5.82
2022-12-19T01:51:48.642Z,-5.73
2022-12-19T01:54:25.516Z,-5.74
2022-12-19T01:57:01.477Z,-5.76
2022-12-19T01:59:36.015Z,-5.78
2022-12-19T02:02:12.383Z,-5.68
2022-12-19T02:04:44.494Z,-5.71
2022-12-19T02:07:17.011Z,-5.72
2022-12-19T02:09:51.161Z,-5.67
2022-12-19T02:12:36.616Z,-5.71
2022-12-19T02:15:08.982Z,-5.66
2022-12-19T02:17:50.184Z,-5.69
2022-12-19T02:20:58.464Z,-5.64
2022-12-19T02:23:57.680Z,-5.62
2022-12-19T02:26:51.111Z,-5.55
2022-12-19T02:29:43.278Z,-5.57
2022-12-19T02:32:22.851Z,-5.56
2022-12-19T02:34:59.863Z,-5.55
2022-12-19T02:37:32.980Z,-5.54
2022-12-19T02:40:09.523Z,-5.59
2022-12-19T02:42:44.673Z,-5.57
2022-12-19T02:45:28.635Z,-5.52
2022-12-19T02:48:08.613Z,-5.49
2022-12-19T02:50:41.642Z,-5.49
2022-12-19T02:53:13.396Z,-5.43
2022-12-19T02:55:51.514Z,-5.44
2022-12-19T02:58:51.756Z,-5.49
2022-12-19T03:01:39.459Z,-5.49
2022-12-19T03:04:20.271Z,-5.50
2022-12-19T03:06:55.848Z,-5.49
2022-12-19T03:09:39.402Z,-5.52
2022-12-19T03:12:21.627Z,-5.48
2022-12-19T03:14:52.635Z,-5.48
2022-12-19T03:17:22.933Z,-5.43
2022-12-19T03:19:55.675Z,-5.42
2022-12-19T03:22:25.926Z,-5.44
2022-12-19T03:24:55.838Z,-5.46
2022-12-19T03:27:32.413Z,-5.47
2022-12-19T03:30:06.387Z,-5.38
2022-12-19T03:32:39.258Z,-5.36
2022-12-19T03:35:18.480Z,-5.32
2022-12-19T03:37:52.722Z,-5.37
2022-12-19T03:40:28.343Z,-5.38
2022-12-19T03:43:09.657Z,-5.30
2022-12-19T03:45:51.155Z,-5.35
2022-12-19T03:48:28.678Z,-5.43
2022-12-19T03:51:12.047Z,-5.42
2022-12-19T03:53:55.892Z,-5.46
2022-12-19T03:56:39.068Z,-5.42
2022-12-19T03:59:14.007Z,-5.36
2022-12-19T04:01:45.113Z,-5.39
2022-12-19T04:04:17.000Z,-5.36
2022-12-19T04:06:51.414Z,-5.38
2022-12-19T04:09:23.597Z,-5.33
2022-12-19T04:12:00.513Z,-5.36
2022-12-19T04:14:33.627Z,-5.43
2022-12-19T04:17:14.475Z,-5.46
2022-12-19T04:19:50.687Z,-5.42
2022-12-19T04:22:28.586Z,-5.46
2022-12-19T04:25:01.977Z,-5.43
2022-12-19T04:27:34.281Z,-5.43
2022-12-19T04:30:05.789Z,-5.46
2022-12-19T04:32:38.781Z,-5.45
2022-12-19T04:35:09.440Z,-5.47
2022-12-19T04:37:42.307Z,-5.47
2022-12-19T04:40:14.242Z,-5.50
2022-12-19T04:42:44.284Z,-5.48
2022-12-19T04:45:14.714Z,-5.49
2022-12-19T04:47:44.635Z,-5.50
2022-12-19T04:50:14.903Z,-5.51
2022-12-19T04:52:47.441Z,-5.53
2022-12-19T04:55:17.962Z,-5.54
2022-12-19T04:57:48.105Z,-5.57
2022-12-19T05:00:19.440Z,-5.54
2022-12-19T05:02:49.893Z,-5.51
2022-12-19T05:05:20.779Z,-5.53
2022-12-19T05:07:54.082Z,-5.54
2022-12-19T05:10:24.888Z,-5.57
2022-12-19T05:12:56.903Z,-5.54
2022-12-19T05:15:27.725Z,-5.58
2022-12-19T05:17:57.925Z,-5.59
2022-12-19T05:20:28.765Z,-5.54
2022-12-19T05:23:15.242Z,-5.56
2022-12-19T05:25:47.249Z,-5.58
2022-12-19T05:28:19.158Z,-5.55
2022-12-19T05:30:52.477Z,-5.58
2022-12-19T05:33:22.948Z,-5.56
2022-12-19T05:35:53.303Z,-5.56
2022-12-19T05:38:25.898Z,-5.54
2022-12-19T05:40:56.318Z,-5.55
2022-12-19T05:43:28.157Z,-5.46
2022-12-19T05:45:58.431Z,-5.53
2022-12-19T05:48:28.551Z,-5.50
2022-12-19T05:50:58.911Z,-5.49
2022-12-19T05:53:31.567Z,-5.50
2022-12-19T05:56:10.022Z,-5.49
2022-12-19T05:58:41.791Z,-5.47
2022-12-19T06:01:14.886Z,-5.46
2022-12-19T06:03:46.978Z,-5.42
2022-12-19T06:06:20.053Z,-5.42
2022-12-19T06:08:55.841Z,-5.41
2022-12-19T06:11:26.667Z,-5.34
2022-12-19T06:13:56.772Z,-5.32
2022-12-19T06:16:27.323Z,-5.31
2022-12-19T06:18:57.469Z,-5.30
2022-12-19T06:21:27.948Z,-5.26
2022-12-19T06:24:00.413Z,-5.25
2022-12-19T06:26:31.691Z,-5.21
2022-12-19T06:29:02.488Z,-5.21
2022-12-19T06:31:36.363Z,-5.16
2022-12-19T06:34:06.555Z,-5.14
2022-12-19T06:36:36.866Z,-5.14
2022-12-19T06:39:09.393Z,-5.13
2022-12-19T06:41:52.077Z,-5.08
2022-12-19T06:44:22.056Z,-5.05
2022-12-19T06:46:52.601Z,-5.05
2022-12-19T06:49:22.796Z,-4.98
2022-12-19T06:51:53.112Z,-4.94
2022-12-19T06:54:25.730Z,-4.95
2022-12-19T06:56:56.034Z,-4.96
2022-12-19T06:59:27.467Z,-4.94
2022-12-19T07:02:01.177Z,-4.96
2022-12-19T07:04:34.099Z,-4.91
2022-12-19T07:07:04.430Z,-4.84
2022-12-19T07:09:37.551Z,-4.85
2022-12-19T07:12:08.382Z,-4.82
2022-12-19T07:14:38.308Z,-4.79
2022-12-19T07:17:09.006Z,-4.73
2022-12-19T07:19:39.140Z,-4.74
2022-12-19T07:22:10.365Z,-4.74
2022-12-19T07:24:43.430Z,-4.68
2022-12-19T07:27:14.153Z,-4.69
2022-12-19T07:29:47.099Z,-4.65
2022-12-19T07:32:18.093Z,-4.66
2022-12-19T07:34:48.322Z,-4.65
2022-12-19T07:37:18.921Z,-4.60
2022-12-19T07:39:53.044Z,-4.62
2022-12-19T07:42:26.028Z,-4.59
2022-12-19T07:44:58.346Z,-4.52
2022-12-19T07:47:29.937Z,-4.53
2022-12-19T07:50:00.213Z,-4.47
2022-12-19T07:52:31.185Z,-4.48
2022-12-19T07:55:04.000Z,-4.40
2022-12-19T07:57:34.518Z,-4.34
2022-12-19T08:00:05.210Z,-4.30
2022-12-19T08:02:36.138Z,-4.31
2022-12-19T08:05:07.189Z,-4.25
2022-12-19T08:07:37.773Z,-4.24
2022-12-19T08:10:12.579Z,-4.17
2022-12-19T08:12:43.172Z,-4.16
2022-12-19T08:15:13.790Z,-4.11
2022-12-19T08:17:44.480Z,-4.11
2022-12-19T08:20:15.027Z,-4.07
2022-12-19T08:22:45.334Z,-4.05
2022-12-19T08:25:17.940Z,-4.00
2022-12-19T08:27:48.253Z,-3.99
2022-12-19T08:30:18.909Z,-3.96
2022-12-19T08:32:49.283Z,-3.96
2022-12-19T08:35:19.444Z,-3.91
2022-12-19T08:37:49.675Z,-3.87
2022-12-19T08:40:23.320Z,-3.83
2022-12-19T08:42:53.746Z,-3.81
2022-12-19T08:45:23.669Z,-3.78
2022-12-19T08:47:53.922Z,-3.75
2022-12-19T08:50:23.864Z,-3.68
2022-12-19T08:52:54.133Z,-3.69
2022-12-19T08:55:27.689Z,-3.65
2022-12-19T08:57:59.578Z,-3.64
2022-12-19T09:00:31.748Z,-3.59
2022-12-19T09:03:01.924Z,-3.54
2022-12-19T09:05:59.416Z,-3.50
2022-12-19T09:08:22.273Z,-3.48
2022-12-19T09:11:00.946Z,-3.43
2022-12-19T09:13:32.371Z,-3.45
2022-12-19T09:16:04.464Z,-3.42
2022-12-19T09:18:35.278Z,-3.35
2022-12-19T09:21:07.815Z,-3.32
2022-12-19T09:23:38.868Z,-3.29
2022-12-19T09:26:13.289Z,-3.25
2022-12-19T09:28:44.207Z,-3.14
2022-12-19T09:31:17.141Z,-3.10
2022-12-19T09:33:47.784Z,-3.11
2022-12-19T09:36:21.130Z,-3.08
2022-12-19T09:38:51.258Z,-3.02
2022-12-19T09:41:53.974Z,-2.96
2022-12-19T09:44:41.071Z,-2.96
2022-12-19T09:47:16.493Z,-2.88
2022-12-19T09:49:48.239Z,-2.83
2022-12-19T09:52:21.824Z,-2.70
2022-12-19T09:54:58.856Z,-2.72
2022-12-19T09:57:42.386Z,-2.62
2022-12-19T10:00:19.104Z,-2.58
2022-12-19T10:02:53.458Z,-2.49
2022-12-19T10:06:49.275Z,-2.35
2022-12-19T10:08:25.041Z,-2.38
2022-12-19T10:12:38.218Z,-2.32
2022-12-19T10:14:27.092Z,-2.25
2022-12-19T10:17:28.090Z,-2.18
2022-12-19T10:20:16.488Z,-2.12
2022-12-19T10:22:58.115Z,-2.07
2022-12-19T10:25:43.471Z,-2.03
2022-12-19T10:28:29.234Z,-1.98
2022-12-19T10:31:19.059Z,-1.93
2022-12-19T10:33:58.745Z,-1.83
2022-12-19T10:37:03.977Z,-1.84
2022-12-19T10:39:31.640Z,-1.81
2022-12-19T10:42:12.331Z,-1.75
2022-12-19T10:44:45.646Z,-1.70
2022-12-19T10:47:20.130Z,-1.60
2022-12-19T10:49:50.081Z,-1.57
2022-12-19T10:52:52.293Z,-1.56
2022-12-19T10:55:32.722Z,-1.51
2022-12-19T10:58:10.622Z,-1.46
2022-12-19T11:00:42.737Z,-1.41
2022-12-19T11:03:19.942Z,-1.38
2022-12-19T11:05:57.678Z,-1.34
2022-12-19T11:08:31.406Z,-1.36
2022-12-19T11:14:50.084Z,-1.30
2022-12-19T11:19:48.966Z,-1.27
2022-12-19T11:27:03.940Z,-1.24
2022-12-19T11:29:34.559Z,-1.16
2022-12-19T11:29:35.182Z,-1.18
2022-12-19T11:30:42.996Z,-1.20
2022-12-19T11:32:40.193Z,-1.07
2022-12-19T11:35:20.651Z,-1.09
2022-12-19T11:38:00.821Z,-1.04
2022-12-19T11:40:44.663Z,-0.96
2022-12-19T11:43:45.437Z,-0.91
2022-12-19T11:46:22.257Z,-0.92
2022-12-19T11:48:56.625Z,-1.00
2022-12-19T11:51:35.160Z,-0.96
2022-12-19T11:54:18.241Z,-0.96
2022-12-19T11:56:50.418Z,-0.92
2022-12-19T11:59:26.461Z,-0.91
2022-12-19T12:02:09.906Z,-0.94
2022-12-19T12:05:07.862Z,-0.89
2022-12-19T12:08:57.109Z,-0.88
2022-12-19T12:16:17.710Z,-0.90
2022-12-19T12:23:53.831Z,-0.86
2022-12-19T12:24:15.044Z,-0.82
2022-12-19T12:31:20.197Z,-0.84
2022-12-19T12:31:40.237Z,-0.82
2022-12-19T12:31:50.447Z,-0.84
2022-12-19T12:35:07.037Z,-0.78
2022-12-19T12:35:56.637Z,-0.84
2022-12-19T12:37:05.197Z,-0.78
2022-12-19T12:38:26.449Z,-0.70
2022-12-19T12:41:18.018Z,-0.69
2022-12-19T12:47:25.672Z,-0.69
2022-12-19T12:49:59.578Z,-0.67
2022-12-19T12:52:37.077Z,-0.68
2022-12-19T12:55:17.497Z,-0.64
2022-12-19T12:57:52.462Z,-0.63
2022-12-19T13:00:26.234Z,-0.60
2022-12-19T13:03:08.899Z,-0.65
2022-12-19T13:05:43.931Z,-0.60
2022-12-19T13:08:30.173Z,-0.46
2022-12-19T13:11:03.340Z,-0.62
2022-12-19T13:13:58.235Z,-0.63
2022-12-19T13:16:51.342Z,-0.62
2022-12-19T13:19:28.048Z,-0.59
2022-12-19T13:22:23.723Z,-0.63
2022-12-19T13:24:55.461Z,-0.60
2022-12-19T13:27:41.933Z,-0.59
2022-12-19T13:30:22.853Z,-0.59
2022-12-19T13:33:10.204Z,-0.63
2022-12-19T13:39:46.283Z,-0.56
2022-12-19T13:40:00.502Z,-0.59
2022-12-19T13:41:44.948Z,-0.56
2022-12-19T13:44:15.569Z,-0.58
2022-12-19T13:46:48.811Z,-0.53
2022-12-19T13:49:27.547Z,-0.49
2022-12-19T13:52:00.894Z,-0.48
2022-12-19T13:54:34.708Z,-0.47
2022-12-19T13:57:09.682Z,-0.49
2022-12-19T13:59:59.472Z,-0.46
2022-12-19T14:02:45.278Z,-0.45
2022-12-19T14:05:34.093Z,-0.41
2022-12-19T14:08:24.536Z,-0.41
2022-12-19T14:11:32.894Z,-0.40
2022-12-19T14:14:10.717Z,-0.37
2022-12-19T14:16:45.049Z,-0.35
2022-12-19T14:19:30.963Z,-0.33
2022-12-19T14:22:20.805Z,-0.34
2022-12-19T14:25:32.107Z,-0.28
2022-12-19T14:28:19.305Z,-0.22
2022-12-19T14:30:49.543Z,-0.19
2022-12-19T14:33:45.212Z,-0.19
2022-12-19T14:36:23.599Z,-0.21
2022-12-19T14:39:27.456Z,-0.12
2022-12-19T14:42:03.572Z,-0.07
2022-12-19T14:51:25.178Z,0.02
2022-12-19T14:53:08.459Z,0.09
2022-12-19T14:54:21.709Z,0.05
2022-12-19T14:54:26.071Z,0.11
2022-12-19T14:59:32.918Z,0.16
2022-12-19T15:02:28.087Z,0.30
2022-12-19T15:05:05.800Z,0.38
2022-12-19T15:07:37.207Z,0.46
2022-12-19T15:11:05.181Z,0.48
2022-12-19T15:14:47.514Z,0.44
2022-12-19T15:16:12.185Z,0.56
2022-12-19T15:18:44.463Z,0.61
2022-12-19T15:21:16.772Z,0.57
2022-12-19T15:23:47.681Z,0.58
2022-12-19T15:26:22.408Z,0.62
2022-12-19T15:28:55.688Z,0.68
2022-12-19T15:31:32.997Z,0.63
2022-12-19T15:34:33.691Z,0.67
2022-12-19T15:36:55.795Z,0.71
2022-12-19T15:39:29.746Z,0.76
2022-12-19T15:42:05.695Z,0.71
2022-12-19T15:44:39.573Z,0.75
2022-12-19T15:47:18.830Z,0.71
2022-12-19T15:49:49.409Z,0.74
2022-12-19T15:52:20.746Z,0.71
2022-12-19T15:54:51.733Z,0.79
2022-12-19T15:57:31.867Z,0.73
2022-12-19T16:00:04.769Z,0.83
2022-12-19T16:05:29.367Z,0.82
2022-12-19T16:08:00.260Z,0.86
2022-12-19T16:10:38.085Z,0.81
2022-12-19T16:13:21.049Z,0.85
2022-12-19T16:15:52.027Z,0.86
2022-12-19T16:18:22.266Z,0.88
2022-12-19T16:20:53.409Z,0.93
2022-12-19T16:23:25.447Z,0.87
2022-12-19T16:25:56.002Z,0.92
2022-12-19T16:28:31.854Z,0.93
2022-12-19T16:31:03.476Z,0.92
2022-12-19T16:33:34.087Z,0.96
2022-12-19T16:36:06.099Z,0.97
2022-12-19T16:38:36.423Z,0.98
2022-12-19T16:41:06.823Z,1.04
2022-12-19T16:43:41.265Z,1.05
2022-12-19T16:46:18.522Z,1.05
2022-12-19T16:48:49.155Z,1.07
2022-12-19T16:51:21.852Z,1.10
2022-12-19T16:53:52.770Z,1.05
2022-12-19T16:56:33.151Z,1.14
2022-12-19T16:59:08.723Z,1.12
2022-12-19T17:01:39.314Z,1.13
2022-12-19T17:04:09.381Z,1.20
2022-12-19T17:06:42.532Z,1.20
2022-12-19T17:09:17.253Z,1.26
2022-12-19T17:11:50.673Z,1.28
2022-12-19T17:14:27.573Z,1.32
2022-12-19T17:16:58.671Z,1.35
2022-12-19T17:19:34.916Z,1.30
2022-12-19T17:22:05.749Z,1.31
2022-12-19T17:24:35.782Z,1.38
2022-12-19T17:27:06.168Z,1.35
2022-12-19T17:29:39.349Z,1.33
2022-12-19T17:32:11.117Z,1.41
2022-12-19T17:34:41.484Z,1.39
2022-12-19T17:37:20.693Z,1.42
2022-12-19T17:39:51.166Z,1.56
2022-12-19T17:42:24.516Z,1.48
2022-12-19T17:44:57.360Z,1.46
2022-12-19T17:47:28.781Z,1.54
2022-12-19T17:49:59.059Z,1.54
2022-12-19T17:52:29.571Z,1.58
2022-12-19T17:54:59.575Z,1.57
2022-12-19T17:57:29.855Z,1.57
2022-12-19T18:00:02.371Z,1.61
2022-12-19T18:02:34.921Z,1.68
2022-12-19T18:05:05.521Z,1.64
2022-12-19T18:07:39.401Z,1.65
2022-12-19T18:10:17.085Z,1.64
2022-12-19T18:12:47.610Z,1.69
2022-12-19T18:15:21.570Z,1.68
2022-12-19T18:17:54.109Z,1.62
2022-12-19T18:20:32.040Z,1.62
2022-12-19T18:23:03.844Z,1.65
2022-12-19T18:25:35.826Z,1.80
2022-12-19T18:28:06.106Z,1.73
2022-12-19T18:30:39.572Z,1.76
2022-12-19T18:33:10.766Z,1.77
2022-12-19T18:35:47.462Z,1.76
2022-12-19T18:38:20.215Z,1.77
2022-12-19T18:40:51.924Z,1.79
2022-12-19T18:43:22.634Z,1.82
2022-12-19T18:45:55.879Z,1.87
2022-12-19T18:48:29.032Z,1.81
2022-12-19T18:51:00.750Z,1.84
2022-12-19T18:53:35.110Z,1.86
2022-12-19T18:56:07.205Z,1.79
2022-12-19T18:58:37.883Z,1.89
2022-12-19T19:01:16.397Z,1.85
2022-12-19T19:03:56.638Z,1.93
2022-12-19T19:06:28.422Z,1.90
2022-12-19T19:09:00.237Z,1.91
2022-12-19T19:11:30.248Z,1.96
2022-12-19T19:14:00.702Z,1.97
2022-12-19T19:16:33.313Z,1.99
2022-12-19T19:19:03.790Z,1.98
2022-12-19T19:21:36.967Z,1.96
2022-12-19T19:24:11.663Z,1.99
2022-12-19T19:26:41.656Z,2.03
2022-12-19T19:29:19.974Z,2.06
2022-12-19T19:31:54.628Z,2.09
2022-12-19T19:34:29.692Z,2.06
2022-12-19T19:37:05.947Z,2.08
2022-12-19T19:39:37.482Z,2.10
2022-12-19T19:42:07.977Z,2.13
2022-12-19T19:44:38.653Z,2.10
2022-12-19T19:47:11.542Z,2.14
2022-12-19T19:49:42.244Z,2.11
2022-12-19T19:52:12.518Z,2.14
2022-12-19T19:54:45.949Z,2.16
2022-12-19T19:57:16.837Z,2.19
2022-12-19T19:59:47.577Z,2.20
2022-12-19T20:02:23.231Z,2.15
2022-12-19T20:04:53.711Z,2.18
2022-12-19T20:07:24.249Z,2.14
2022-12-19T20:09:54.610Z,2.12
2022-12-19T20:12:24.607Z,2.18
2022-12-19T20:14:54.909Z,2.15
2022-12-19T20:17:27.988Z,2.15
2022-12-19T20:19:58.354Z,2.13
2022-12-19T20:22:28.423Z,2.09
2022-12-19T20:24:58.722Z,2.07
2022-12-19T20:27:28.635Z,2.12
2022-12-19T20:29:59.462Z,2.10
2022-12-19T20:32:34.595Z,2.07
2022-12-19T20:35:10.639Z,2.13
2022-12-19T20:37:43.591Z,2.08
2022-12-19T20:40:14.664Z,2.13
2022-12-19T20:42:46.204Z,2.09
2022-12-19T20:45:16.475Z,2.14
2022-12-19T20:47:49.209Z,2.11
2022-12-19T20:50:19.614Z,2.18
2022-12-19T20:52:49.577Z,2.19
2022-12-19T20:55:20.206Z,2.14
2022-12-19T20:57:50.362Z,2.14
2022-12-19T21:00:22.430Z,2.15
2022-12-19T21:05:46.410Z,2.23
2022-12-19T21:08:16.356Z,2.12
2022-12-19T21:10:49.360Z,2.22
2022-12-19T21:13:19.913Z,2.11
2022-12-19T21:15:57.491Z,2.16
2022-12-19T21:18:32.738Z,2.28
2022-12-19T21:21:03.005Z,2.22
2022-12-19T21:23:33.271Z,2.16
2022-12-19T21:26:11.858Z,2.29
2022-12-19T21:28:48.422Z,2.19
2022-12-19T21:31:25.244Z,2.18
2022-12-19T21:34:00.677Z,2.19
2022-12-19T21:36:32.960Z,2.18
2022-12-19T21:39:04.651Z,2.21
2022-12-19T21:41:35.565Z,2.16
2022-12-19T21:44:05.680Z,2.13
2022-12-19T21:46:37.472Z,2.13
2022-12-19T21:49:10.847Z,2.10
2022-12-19T21:51:41.208Z,2.09
2022-12-19T21:54:12.660Z,2.12
2022-12-19T21:56:43.657Z,2.13
2022-12-19T21:59:40.827Z,2.11
2022-12-19T22:02:34.175Z,2.14
2022-12-19T22:05:08.552Z,2.21
2022-12-19T22:07:39.215Z,2.13
2022-12-19T22:10:11.468Z,2.07
2022-12-19T22:12:42.053Z,2.00
2022-12-19T22:15:15.767Z,2.06
2022-12-19T22:17:46.464Z,2.03
2022-12-19T22:20:19.362Z,2.01
2022-12-19T22:22:50.063Z,2.01
2022-12-19T22:25:20.286Z,1.97
2022-12-19T22:27:50.855Z,2.04
2022-12-19T22:30:21.256Z,1.98
2022-12-19T22:32:51.867Z,1.99
2022-12-19T22:35:25.897Z,1.94
2022-12-19T22:37:57.700Z,1.95
2022-12-19T22:40:28.066Z,1.92
2022-12-19T22:42:58.611Z,1.97
2022-12-19T22:45:28.910Z,1.97
2022-12-19T22:47:59.735Z,1.95
2022-12-19T22:50:32.542Z,1.97
2022-12-19T22:53:04.391Z,1.97
2022-12-19T22:55:36.830Z,2.02
2022-12-19T22:58:08.342Z,1.98
2022-12-19T23:00:38.697Z,2.03
2022-12-19T23:03:09.108Z,1.98
2022-12-19T23:05:45.583Z,1.98
2022-12-19T23:08:18.801Z,2.01
2022-12-19T23:10:52.978Z,2.01
2022-12-19T23:13:23.386Z,2.04
2022-12-19T23:15:54.357Z,2.07
2022-12-19T23:18:24.668Z,1.98
2022-12-19T23:21:09.424Z,2.00
2022-12-19T23:23:42.536Z,2.03
2022-12-19T23:26:16.399Z,2.01
2022-12-19T23:28:52.799Z,2.04
2022-12-19T23:31:23.025Z,2.03
2022-12-19T23:33:54.129Z,2.07
2022-12-19T23:37:08.253Z,2.07
2022-12-19T23:39:17.597Z,2.04
2022-12-19T23:41:47.616Z,2.01
2022-12-19T23:44:18.297Z,2.04
2022-12-19T23:46:48.318Z,2.01
2022-12-19T23:49:18.775Z,1.99
2022-12-19T23:51:51.432Z,1.99
2022-12-19T23:54:21.739Z,2.01
2022-12-19T23:56:53.409Z,1.97
2022-12-19T23:59:23.792Z,2.04
